NCAR-RAP Real-Time Weather Data

Output produced by METARs form (08 May 2021  16:34 UTC)
found at http://weather.rap.ucar.edu/surface/
 
KHRL 081552Z 16018G26KT 10SM FEW030 BKN039 BKN047 32/22 A2994 RMK AO2 PK WND 15027/1536 SLP138 T03170217
KHRL 081539Z 16019G27KT 10SM BKN030 BKN038 OVC045 31/22 A2995 RMK AO2 PK WND 15027/1536 T03110222
KHRL 081452Z 15020G27KT 10SM BKN029 29/22 A2994 RMK AO2 PK WND 16029/1435 SLP138 T02890222 50004
KHRL 081425Z 15020G27KT 10SM SCT021 SCT030 28/23 A2994 RMK AO2 PK WND 15027/1419 T02830228
KHRL 081403Z 16018KT 10SM FEW014 BKN021 28/23 A2994 RMK AO2 T02780233
KHRL 081352Z 15015G21KT 10SM SCT016 27/24 A2995 RMK AO2 SLP140 T02720239
KHRL 081252Z 14010KT 10SM OVC015 26/24 A2994 RMK AO2 SLP139 T02560244
KHRL 081226Z 14011KT 10SM BKN015 25/24 A2994 RMK AO2 T02500244
KHRL 081152Z 15009KT 10SM OVC013 24/24 A2993 RMK AO2 SLP134 T02440239 10250 20244 56005
KHRL 081124Z 15008KT 10SM BKN014 24/24 A2993 RMK AO2 T02440239
KHRL 081052Z 14010KT 10SM BKN016 BKN020 24/24 A2993 RMK AO2 SLP135 T02440239
KHRL 080952Z AUTO 15009KT 10SM BKN015 BKN023 OVC029 24/24 A2994 RMK AO2 SLP137 T02440239
KHRL 080852Z AUTO 15013KT 10SM FEW017 BKN028 24/23 A2994 RMK AO2 SLP139 T02440233 56013
KHRL 080850Z AUTO 15010KT 10SM SCT025 BKN030 24/23 A2994 RMK AO2
KHRL 080839Z AUTO 14011KT 10SM FEW017 BKN027 24/23 A2994 RMK AO2 T02440233
KHRL 080752Z AUTO 14013KT 10SM CLR 24/23 A2995 RMK AO2 SLP142 T02440233
KHRL 080723Z AUTO 14016KT 10SM FEW017 FEW025 BKN030 24/23 A2997 RMK AO2 T02440233
KHRL 080652Z AUTO 15013KT 10SM SCT018 BKN024 OVC030 24/23 A2998 RMK AO2 SLP152 T02440233
KHRL 080640Z AUTO 15014KT 10SM SCT018 OVC028 24/23 A2999 RMK AO2 T02440233
KHRL 080615Z AUTO 14013KT 10SM FEW013 BKN030 24/23 A3000 RMK AO2 T02440233
KHRL 080552Z AUTO 14015KT 10SM FEW013 BKN024 OVC029 24/23 A3000 RMK AO2 SLP159 T02440233 10267 20239 403060144 58006
KHRL 080452Z 14012KT 10SM OVC018 24/23 A3002 RMK AO2 SLP167 T02440233
KHRL 080434Z 13011KT 10SM BKN015 OVC021 24/23 A3002 RMK AO2 T02440228
KHRL 080427Z 14011KT 10SM OVC013 24/23 A3002 RMK AO2 T02440228
KHRL 080352Z 13012KT 10SM OVC016 24/23 A3002 RMK AO2 SLP166 T02440228
KHRL 080342Z 13012KT 10SM OVC016 24/23 A3002 RMK AO2 T02390228
KHRL 080313Z 13009KT 10SM BKN014 24/22 A3002 RMK AO2 T02390222
KHRL 080252Z 11010KT 10SM SCT016 24/22 A3002 RMK AO2 SLP165 T02390222 51005
KHRL 080247Z 11010KT 10SM BKN016 24/22 A3002 RMK AO2
KHRL 080152Z 11013KT 10SM FEW019 24/22 A3001 RMK AO2 SLP163 T02390222